sensor_id;sensor_type;location;lat;lon;timestamp;P1;durP1;ratioP1;P2;durP2;ratioP2
34557;SDS011;24708;48.888;8.736;2023-02-28T06:31:20;9.63;;;5.57;;
34557;SDS011;24708;48.888;8.736;2023-02-28T06:33:48;11.63;;;5.35;;
34557;SDS011;24708;48.888;8.736;2023-02-28T06:36:16;13.82;;;6.82;;
34557;SDS011;24708;48.888;8.736;2023-02-28T06:38:44;11.57;;;6.93;;
34557;SDS011;24708;48.888;8.736;2023-02-28T06:41:12;13.02;;;5.57;;
34557;SDS011;24708;48.888;8.736;2023-02-28T06:43:40;12.95;;;6.40;;
34557;SDS011;24708;48.888;8.736;2023-02-28T06:46:11;12.73;;;6.22;;
34557;SDS011;24708;48.888;8.736;2023-02-28T06:48:40;13.15;;;6.03;;
34557;SDS011;24708;48.888;8.736;2023-02-28T06:51:11;13.30;;;6.43;;
34557;SDS011;24708;48.888;8.736;2023-02-28T06:53:40;20.80;;;6.43;;
34557;SDS011;24708;48.888;8.736;2023-02-28T06:56:11;10.77;;;6.38;;
34557;SDS011;24708;48.888;8.736;2023-02-28T06:58:39;12.20;;;6.45;;
34557;SDS011;24708;48.888;8.736;2023-02-28T07:01:08;13.25;;;6.32;;
34557;SDS011;24708;48.888;8.736;2023-02-28T07:03:36;14.18;;;6.07;;
34557;SDS011;24708;48.888;8.736;2023-02-28T07:06:05;14.65;;;6.85;;
34557;SDS011;24708;48.888;8.736;2023-02-28T07:08:33;12.52;;;6.35;;
34557;SDS011;24708;48.888;8.736;2023-02-28T07:11:03;11.95;;;6.20;;
34557;SDS011;24708;48.888;8.736;2023-02-28T07:16:04;13.73;;;6.07;;
34557;SDS011;24708;48.888;8.736;2023-02-28T07:18:36;9.27;;;5.72;;
34557;SDS011;24708;48.888;8.736;2023-02-28T07:21:10;13.00;;;7.32;;
34557;SDS011;24708;48.888;8.736;2023-02-28T07:23:50;14.02;;;5.60;;
34557;SDS011;24708;48.888;8.736;2023-02-28T07:26:22;11.27;;;6.47;;
34557;SDS011;24708;48.888;8.736;2023-02-28T07:28:50;16.50;;;7.18;;
34557;SDS011;24708;48.888;8.736;2023-02-28T07:31:19;9.65;;;5.45;;
34557;SDS011;24708;48.888;8.736;2023-02-28T07:33:47;17.23;;;6.90;;
34557;SDS011;24708;48.888;8.736;2023-02-28T07:36:16;13.23;;;7.15;;
34557;SDS011;24708;48.888;8.736;2023-02-28T07:38:46;16.42;;;6.45;;
34557;SDS011;24708;48.888;8.736;2023-02-28T07:41:15;13.68;;;6.97;;
34557;SDS011;24708;48.888;8.736;2023-02-28T07:43:44;11.63;;;6.72;;
34557;SDS011;24708;48.888;8.736;2023-02-28T07:46:14;14.40;;;6.32;;
34557;SDS011;24708;48.888;8.736;2023-02-28T07:48:43;10.85;;;6.85;;
34557;SDS011;24708;48.888;8.736;2023-02-28T07:51:11;10.95;;;6.38;;
34557;SDS011;24708;48.888;8.736;2023-02-28T07:53:40;10.95;;;6.10;;
34557;SDS011;24708;48.888;8.736;2023-02-28T07:56:07;14.48;;;5.80;;
34557;SDS011;24708;48.888;8.736;2023-02-28T07:58:35;14.45;;;6.65;;
34557;SDS011;24708;48.888;8.736;2023-02-28T08:01:09;11.23;;;5.53;;
34557;SDS011;24708;48.888;8.736;2023-02-28T08:03:37;11.93;;;7.32;;
34557;SDS011;24708;48.888;8.736;2023-02-28T08:06:15;16.33;;;6.70;;
34557;SDS011;24708;48.888;8.736;2023-02-28T08:08:45;13.90;;;6.75;;
34557;SDS011;24708;48.888;8.736;2023-02-28T08:11:13;12.45;;;6.85;;
34557;SDS011;24708;48.888;8.736;2023-02-28T08:13:40;10.68;;;6.47;;
34557;SDS011;24708;48.888;8.736;2023-02-28T08:16:09;13.88;;;6.95;;
34557;SDS011;24708;48.888;8.736;2023-02-28T08:18:37;10.57;;;6.65;;
34557;SDS011;24708;48.888;8.736;2023-02-28T08:21:07;15.07;;;6.45;;
34557;SDS011;24708;48.888;8.736;2023-02-28T08:23:35;16.23;;;6.95;;
34557;SDS011;24708;48.888;8.736;2023-02-28T08:26:03;10.63;;;6.05;;
34557;SDS011;24708;48.888;8.736;2023-02-28T08:28:32;14.73;;;6.60;;
34557;SDS011;24708;48.888;8.736;2023-02-28T08:31:00;12.23;;;6.93;;
34557;SDS011;24708;48.888;8.736;2023-02-28T08:33:27;15.82;;;6.85;;
34557;SDS011;24708;48.888;8.736;2023-02-28T08:35:55;18.00;;;6.85;;
34557;SDS011;24708;48.888;8.736;2023-02-28T08:38:23;11.18;;;6.82;;
34557;SDS011;24708;48.888;8.736;2023-02-28T08:40:56;14.80;;;6.75;;
34557;SDS011;24708;48.888;8.736;2023-02-28T08:43:29;18.02;;;7.25;;
34557;SDS011;24708;48.888;8.736;2023-02-28T08:45:56;12.20;;;6.30;;
34557;SDS011;24708;48.888;8.736;2023-02-28T08:48:26;12.70;;;7.15;;
34557;SDS011;24708;48.888;8.736;2023-02-28T08:50:59;15.38;;;7.05;;
34557;SDS011;24708;48.888;8.736;2023-02-28T08:53:35;11.68;;;7.55;;
34557;SDS011;24708;48.888;8.736;2023-02-28T08:56:13;14.00;;;5.72;;
34557;SDS011;24708;48.888;8.736;2023-02-28T08:58:44;17.23;;;8.25;;
34557;SDS011;24708;48.888;8.736;2023-02-28T09:01:16;13.13;;;7.60;;
34557;SDS011;24708;48.888;8.736;2023-02-28T09:03:51;19.00;;;6.90;;
34557;SDS011;24708;48.888;8.736;2023-02-28T09:06:32;11.93;;;7.20;;
34557;SDS011;24708;48.888;8.736;2023-02-28T09:09:04;13.63;;;7.10;;
34557;SDS011;24708;48.888;8.736;2023-02-28T09:11:36;16.35;;;7.53;;
34557;SDS011;24708;48.888;8.736;2023-02-28T09:14:12;15.23;;;7.90;;
34557;SDS011;24708;48.888;8.736;2023-02-28T09:16:48;13.20;;;7.03;;
34557;SDS011;24708;48.888;8.736;2023-02-28T09:19:24;15.80;;;7.75;;
34557;SDS011;24708;48.888;8.736;2023-02-28T09:22:08;18.77;;;7.38;;
34557;SDS011;24708;48.888;8.736;2023-02-28T09:24:48;19.35;;;9.23;;
34557;SDS011;24708;48.888;8.736;2023-02-28T09:27:25;16.70;;;8.70;;
34557;SDS011;24708;48.888;8.736;2023-02-28T09:30:01;11.68;;;7.20;;
34557;SDS011;24708;48.888;8.736;2023-02-28T09:32:35;13.77;;;7.55;;
34557;SDS011;24708;48.888;8.736;2023-02-28T09:35:07;16.65;;;7.82;;
34557;SDS011;24708;48.888;8.736;2023-02-28T09:37:45;17.73;;;8.77;;
34557;SDS011;24708;48.888;8.736;2023-02-28T09:40:26;16.33;;;8.52;;
34557;SDS011;24708;48.888;8.736;2023-02-28T09:43:11;17.40;;;6.88;;
34557;SDS011;24708;48.888;8.736;2023-02-28T09:45:55;15.13;;;9.10;;
34557;SDS011;24708;48.888;8.736;2023-02-28T09:48:41;15.32;;;8.77;;
34557;SDS011;24708;48.888;8.736;2023-02-28T09:51:40;17.67;;;7.68;;
34557;SDS011;24708;48.888;8.736;2023-02-28T09:54:22;14.05;;;8.52;;
34557;SDS011;24708;48.888;8.736;2023-02-28T10:08:28;13.50;;;7.32;;
34557;SDS011;24708;48.888;8.736;2023-02-28T10:11:09;15.90;;;8.50;;
34557;SDS011;24708;48.888;8.736;2023-02-28T10:14:02;18.38;;;8.80;;
34557;SDS011;24708;48.888;8.736;2023-02-28T10:29:46;14.43;;;8.23;;
34557;SDS011;24708;48.888;8.736;2023-02-28T10:32:18;20.85;;;9.40;;
34557;SDS011;24708;48.888;8.736;2023-02-28T10:35:06;12.77;;;8.63;;
34557;SDS011;24708;48.888;8.736;2023-02-28T10:41:10;13.18;;;7.65;;
34557;SDS011;24708;48.888;8.736;2023-02-28T10:43:45;19.23;;;8.65;;
34557;SDS011;24708;48.888;8.736;2023-02-28T10:46:16;12.40;;;8.68;;
34557;SDS011;24708;48.888;8.736;2023-02-28T10:49:00;15.63;;;8.25;;
34557;SDS011;24708;48.888;8.736;2023-02-28T10:51:39;17.52;;;9.15;;
34557;SDS011;24708;48.888;8.736;2023-02-28T10:54:33;17.83;;;8.13;;
34557;SDS011;24708;48.888;8.736;2023-02-28T10:59:52;15.43;;;8.30;;
34557;SDS011;24708;48.888;8.736;2023-02-28T11:02:40;19.45;;;8.57;;
34557;SDS011;24708;48.888;8.736;2023-02-28T11:08:03;14.43;;;7.38;;
34557;SDS011;24708;48.888;8.736;2023-02-28T11:10:47;15.45;;;8.63;;
34557;SDS011;24708;48.888;8.736;2023-02-28T11:13:21;15.32;;;8.98;;
34557;SDS011;24708;48.888;8.736;2023-02-28T11:16:05;17.92;;;8.30;;
34557;SDS011;24708;48.888;8.736;2023-02-28T11:18:41;19.70;;;9.82;;
34557;SDS011;24708;48.888;8.736;2023-02-28T11:21:15;22.27;;;8.20;;
34557;SDS011;24708;48.888;8.736;2023-02-28T11:23:47;16.50;;;9.15;;
34557;SDS011;24708;48.888;8.736;2023-02-28T11:26:34;19.13;;;9.38;;
34557;SDS011;24708;48.888;8.736;2023-02-28T11:29:12;12.90;;;6.82;;
34557;SDS011;24708;48.888;8.736;2023-02-28T11:32:00;17.35;;;9.00;;
34557;SDS011;24708;48.888;8.736;2023-02-28T11:34:31;18.52;;;8.70;;
34557;SDS011;24708;48.888;8.736;2023-02-28T11:37:01;18.25;;;8.57;;
34557;SDS011;24708;48.888;8.736;2023-02-28T11:39:33;16.75;;;8.82;;
34557;SDS011;24708;48.888;8.736;2023-02-28T11:47:31;13.75;;;7.82;;
34557;SDS011;24708;48.888;8.736;2023-02-28T11:50:23;16.95;;;8.55;;
34557;SDS011;24708;48.888;8.736;2023-02-28T12:10:54;21.00;;;7.40;;
34557;SDS011;24708;48.888;8.736;2023-02-28T12:13:36;14.15;;;7.82;;
34557;SDS011;24708;48.888;8.736;2023-02-28T12:16:16;15.52;;;9.15;;
34557;SDS011;24708;48.888;8.736;2023-02-28T12:27:37;14.30;;;7.90;;
34557;SDS011;24708;48.888;8.736;2023-02-28T12:30:22;15.88;;;8.32;;
34557;SDS011;24708;48.888;8.736;2023-02-28T12:35:39;14.77;;;8.73;;
34557;SDS011;24708;48.888;8.736;2023-02-28T12:38:19;21.33;;;8.23;;
34557;SDS011;24708;48.888;8.736;2023-02-28T12:43:53;17.08;;;8.02;;
34557;SDS011;24708;48.888;8.736;2023-02-28T12:46:32;17.80;;;9.10;;
34557;SDS011;24708;48.888;8.736;2023-02-28T12:49:19;13.98;;;8.13;;
34557;SDS011;24708;48.888;8.736;2023-02-28T12:51:51;13.25;;;7.97;;
34557;SDS011;24708;48.888;8.736;2023-02-28T12:54:24;12.32;;;7.78;;
34557;SDS011;24708;48.888;8.736;2023-02-28T12:59:51;18.10;;;8.32;;
34557;SDS011;24708;48.888;8.736;2023-02-28T13:10:52;19.40;;;9.18;;
34557;SDS011;24708;48.888;8.736;2023-02-28T13:13:23;13.52;;;8.68;;
34557;SDS011;24708;48.888;8.736;2023-02-28T13:21:21;19.35;;;8.48;;
34557;SDS011;24708;48.888;8.736;2023-02-28T13:24:02;16.02;;;8.45;;
34557;SDS011;24708;48.888;8.736;2023-02-28T13:34:33;21.05;;;7.93;;
34557;SDS011;24708;48.888;8.736;2023-02-28T13:37:48;16.65;;;8.98;;
34557;SDS011;24708;48.888;8.736;2023-02-28T13:42:31;16.48;;;7.82;;
34557;SDS011;24708;48.888;8.736;2023-02-28T13:47:52;15.88;;;8.18;;
34557;SDS011;24708;48.888;8.736;2023-02-28T13:59:00;16.15;;;8.07;;
34557;SDS011;24708;48.888;8.736;2023-02-28T14:01:53;18.17;;;8.70;;
34557;SDS011;24708;48.888;8.736;2023-02-28T14:04:43;16.85;;;8.82;;
34557;SDS011;24708;48.888;8.736;2023-02-28T14:07:38;15.93;;;7.82;;
34557;SDS011;24708;48.888;8.736;2023-02-28T14:12:59;13.57;;;7.45;;
34557;SDS011;24708;48.888;8.736;2023-02-28T14:15:57;15.02;;;8.10;;
34557;SDS011;24708;48.888;8.736;2023-02-28T14:34:36;16.65;;;8.75;;
34557;SDS011;24708;48.888;8.736;2023-02-28T14:39:46;16.75;;;9.20;;
34557;SDS011;24708;48.888;8.736;2023-02-28T14:42:28;15.88;;;8.40;;
34557;SDS011;24708;48.888;8.736;2023-02-28T14:45:05;16.95;;;7.45;;
34557;SDS011;24708;48.888;8.736;2023-02-28T14:47:33;21.20;;;9.40;;
34557;SDS011;24708;48.888;8.736;2023-02-28T14:50:03;17.17;;;10.25;;
34557;SDS011;24708;48.888;8.736;2023-02-28T14:52:31;23.13;;;9.23;;
34557;SDS011;24708;48.888;8.736;2023-02-28T14:55:01;18.45;;;8.77;;
34557;SDS011;24708;48.888;8.736;2023-02-28T14:57:34;23.80;;;8.88;;
34557;SDS011;24708;48.888;8.736;2023-02-28T15:00:11;14.90;;;8.35;;
34557;SDS011;24708;48.888;8.736;2023-02-28T15:02:41;16.00;;;8.90;;
34557;SDS011;24708;48.888;8.736;2023-02-28T15:07:37;13.77;;;7.30;;
34557;SDS011;24708;48.888;8.736;2023-02-28T15:10:13;21.63;;;8.98;;
34557;SDS011;24708;48.888;8.736;2023-02-28T15:12:58;14.95;;;8.52;;
34557;SDS011;24708;48.888;8.736;2023-02-28T15:21:00;13.55;;;8.23;;
34557;SDS011;24708;48.888;8.736;2023-02-28T15:23:31;37.28;;;9.88;;
34557;SDS011;24708;48.888;8.736;2023-02-28T15:26:00;19.25;;;9.30;;
34557;SDS011;24708;48.888;8.736;2023-02-28T15:28:28;27.52;;;9.68;;
34557;SDS011;24708;48.888;8.736;2023-02-28T15:30:59;21.98;;;10.20;;
34557;SDS011;24708;48.888;8.736;2023-02-28T15:33:29;23.52;;;10.05;;
34557;SDS011;24708;48.888;8.736;2023-02-28T15:39:00;17.55;;;9.50;;
34557;SDS011;24708;48.888;8.736;2023-02-28T15:41:41;16.80;;;9.00;;
34557;SDS011;24708;48.888;8.736;2023-02-28T15:44:25;17.05;;;10.63;;
34557;SDS011;24708;48.888;8.736;2023-02-28T15:47:02;14.27;;;8.27;;
34557;SDS011;24708;48.888;8.736;2023-02-28T15:52:18;21.15;;;8.82;;
34557;SDS011;24708;48.888;8.736;2023-02-28T15:54:47;17.73;;;9.13;;
34557;SDS011;24708;48.888;8.736;2023-02-28T15:57:17;17.63;;;8.95;;
34557;SDS011;24708;48.888;8.736;2023-02-28T15:59:52;19.95;;;8.45;;
34557;SDS011;24708;48.888;8.736;2023-02-28T16:02:33;19.45;;;9.05;;
34557;SDS011;24708;48.888;8.736;2023-02-28T16:07:33;16.38;;;8.63;;
34557;SDS011;24708;48.888;8.736;2023-02-28T16:10:10;15.65;;;8.73;;
34557;SDS011;24708;48.888;8.736;2023-02-28T16:12:40;23.33;;;10.07;;
34557;SDS011;24708;48.888;8.736;2023-02-28T16:15:25;15.13;;;9.35;;
34557;SDS011;24708;48.888;8.736;2023-02-28T16:17:56;21.35;;;9.82;;
34557;SDS011;24708;48.888;8.736;2023-02-28T16:20:26;21.95;;;10.25;;
34557;SDS011;24708;48.888;8.736;2023-02-28T16:22:55;16.42;;;9.38;;
34557;SDS011;24708;48.888;8.736;2023-02-28T16:25:24;16.77;;;9.27;;
34557;SDS011;24708;48.888;8.736;2023-02-28T16:27:59;19.42;;;10.32;;
34557;SDS011;24708;48.888;8.736;2023-02-28T16:30:28;20.23;;;10.68;;
34557;SDS011;24708;48.888;8.736;2023-02-28T16:32:59;18.52;;;10.20;;
34557;SDS011;24708;48.888;8.736;2023-02-28T16:35:26;21.90;;;9.95;;
34557;SDS011;24708;48.888;8.736;2023-02-28T16:37:54;19.10;;;9.05;;
34557;SDS011;24708;48.888;8.736;2023-02-28T16:40:23;15.88;;;8.80;;
34557;SDS011;24708;48.888;8.736;2023-02-28T16:42:52;19.15;;;9.40;;
34557;SDS011;24708;48.888;8.736;2023-02-28T16:45:23;20.23;;;9.80;;
34557;SDS011;24708;48.888;8.736;2023-02-28T16:47:54;15.98;;;9.23;;
34557;SDS011;24708;48.888;8.736;2023-02-28T16:50:24;18.77;;;10.20;;
34557;SDS011;24708;48.888;8.736;2023-02-28T16:52:56;15.00;;;9.00;;
34557;SDS011;24708;48.888;8.736;2023-02-28T16:55:24;19.13;;;9.70;;
34557;SDS011;24708;48.888;8.736;2023-02-28T16:57:53;18.38;;;9.07;;
